createdAt,value
2018-10-17T00:00:10.748Z,14.72
2018-10-17T00:01:10.871Z,14.82
2018-10-17T00:03:03.542Z,14.88
2018-10-17T00:04:03.487Z,14.84
2018-10-17T00:05:56.313Z,14.91
2018-10-17T00:06:56.317Z,14.85
2018-10-17T00:08:49.083Z,14.88
2018-10-17T00:09:49.028Z,14.86
2018-10-17T00:11:41.864Z,14.85
2018-10-17T00:12:41.796Z,14.92
2018-10-17T00:14:34.620Z,14.89
2018-10-17T00:15:34.578Z,14.82
2018-10-17T00:17:27.425Z,14.88
2018-10-17T00:18:27.357Z,14.85
2018-10-17T00:20:20.169Z,14.92
2018-10-17T00:21:20.130Z,14.89
2018-10-17T00:23:13.061Z,14.89
2018-10-17T00:24:12.915Z,14.94
2018-10-17T00:26:06.233Z,14.85
2018-10-17T00:27:06.181Z,14.84
2018-10-17T00:28:59.035Z,14.92
2018-10-17T00:29:58.968Z,14.86
2018-10-17T00:31:51.780Z,14.88
2018-10-17T00:32:51.741Z,14.92
2018-10-17T00:34:44.554Z,14.94
2018-10-17T00:35:44.501Z,14.96
2018-10-17T00:37:37.346Z,14.91
2018-10-17T00:38:37.275Z,15.02
2018-10-17T00:40:30.108Z,15.02
2018-10-17T00:41:30.056Z,14.92
2018-10-17T00:43:22.886Z,14.97
2018-10-17T00:44:22.827Z,14.97
2018-10-17T00:46:15.634Z,14.97
2018-10-17T00:47:15.671Z,14.97
2018-10-17T00:49:08.980Z,14.92
2018-10-17T00:50:08.863Z,14.88
2018-10-17T00:52:01.679Z,14.91
2018-10-17T00:53:01.692Z,14.89
2018-10-17T00:54:54.473Z,14.94
2018-10-17T00:55:54.427Z,14.89
2018-10-17T00:57:47.256Z,14.84
2018-10-17T00:58:47.197Z,14.84
2018-10-17T01:00:40.006Z,14.84
2018-10-17T01:01:39.961Z,14.72
2018-10-17T01:03:32.806Z,14.72
2018-10-17T01:04:32.740Z,14.82
2018-10-17T01:06:25.556Z,14.78
2018-10-17T01:07:25.522Z,14.70
2018-10-17T01:09:18.343Z,14.73
2018-10-17T01:10:18.292Z,14.62
2018-10-17T01:12:11.115Z,14.63
2018-10-17T01:13:11.166Z,14.66
2018-10-17T01:15:03.892Z,14.65
2018-10-17T01:16:03.856Z,14.50
2018-10-17T01:17:56.656Z,14.47
2018-10-17T01:18:56.637Z,14.54
2018-10-17T01:20:49.433Z,14.51
2018-10-17T01:21:49.383Z,14.45
2018-10-17T01:23:42.197Z,14.51
2018-10-17T01:24:42.151Z,14.40
2018-10-17T01:26:34.981Z,14.43
2018-10-17T01:27:34.936Z,14.37
2018-10-17T01:31:00.489Z,14.43
2018-10-17T01:32:00.402Z,14.35
2018-10-17T01:33:53.227Z,14.36
2018-10-17T01:34:53.181Z,14.36
2018-10-17T01:36:45.992Z,14.36
2018-10-17T01:37:45.937Z,14.29
2018-10-17T01:39:38.761Z,14.36
2018-10-17T01:40:38.712Z,14.28
2018-10-17T01:42:31.517Z,14.22
2018-10-17T01:43:31.482Z,14.25
2018-10-17T01:45:24.307Z,14.20
2018-10-17T01:46:24.253Z,14.15
2018-10-17T01:48:17.074Z,14.28
2018-10-17T01:49:17.037Z,14.20
2018-10-17T01:51:09.854Z,14.25
2018-10-17T01:52:09.820Z,14.22
2018-10-17T01:54:02.607Z,14.26
2018-10-17T01:55:02.586Z,14.20
2018-10-17T01:56:55.908Z,14.22
2018-10-17T01:57:55.837Z,14.15
2018-10-17T01:59:48.657Z,14.22
2018-10-17T02:00:48.628Z,14.23
2018-10-17T02:02:42.429Z,14.23
2018-10-17T02:03:42.377Z,14.15
2018-10-17T02:05:35.213Z,14.25
2018-10-17T02:06:35.162Z,14.12
2018-10-17T02:08:27.966Z,14.14
2018-10-17T02:09:27.934Z,14.14
2018-10-17T02:11:20.785Z,14.18
2018-10-17T02:12:20.700Z,14.11
2018-10-17T02:14:13.534Z,14.18
2018-10-17T02:15:13.490Z,14.10
2018-10-17T02:17:06.870Z,14.14
2018-10-17T02:18:06.763Z,14.03
2018-10-17T02:19:59.569Z,14.07
2018-10-17T02:20:59.544Z,14.07
2018-10-17T02:22:52.365Z,14.05
2018-10-17T02:23:52.308Z,14.00
2018-10-17T02:25:45.119Z,13.95
2018-10-17T02:26:45.085Z,13.93
2018-10-17T02:28:37.899Z,13.95
2018-10-17T02:29:37.863Z,13.92
2018-10-17T02:31:31.165Z,13.87
2018-10-17T02:32:31.135Z,13.79
2018-10-17T02:34:23.965Z,13.77
2018-10-17T02:35:23.901Z,13.79
2018-10-17T02:37:16.775Z,13.74
2018-10-17T02:38:16.675Z,13.71
2018-10-17T02:40:09.479Z,13.70
2018-10-17T02:41:09.507Z,13.62
2018-10-17T02:43:02.320Z,13.60
2018-10-17T02:44:02.283Z,13.62
2018-10-17T02:45:55.036Z,13.60
2018-10-17T02:46:55.007Z,13.59
2018-10-17T02:48:47.825Z,13.53
2018-10-17T02:49:47.760Z,13.57
2018-10-17T02:51:40.566Z,13.54
2018-10-17T02:52:40.545Z,13.50
2018-10-17T02:54:33.354Z,13.52
2018-10-17T02:55:33.309Z,13.50
2018-10-17T02:57:26.121Z,13.53
2018-10-17T02:58:26.087Z,13.56
2018-10-17T03:00:18.921Z,13.52
2018-10-17T03:01:18.934Z,13.50
2018-10-17T03:03:11.682Z,13.52
2018-10-17T03:04:11.646Z,13.52
2018-10-17T03:06:04.453Z,13.52
2018-10-17T03:07:04.441Z,13.50
2018-10-17T03:08:57.242Z,13.54
2018-10-17T03:09:57.191Z,13.57
2018-10-17T03:11:49.993Z,13.50
2018-10-17T03:12:49.966Z,13.52
2018-10-17T03:14:42.782Z,13.57
2018-10-17T03:15:42.731Z,13.54
2018-10-17T03:17:35.534Z,13.54
2018-10-17T03:18:35.508Z,13.54
2018-10-17T03:20:28.315Z,13.57
2018-10-17T03:21:28.273Z,13.57
2018-10-17T03:23:21.169Z,13.54
2018-10-17T03:24:21.036Z,13.57
2018-10-17T03:26:13.858Z,13.63
2018-10-17T03:27:13.818Z,13.57
2018-10-17T03:29:06.735Z,13.70
2018-10-17T03:30:06.593Z,13.65
2018-10-17T03:31:59.403Z,13.62
2018-10-17T03:32:59.361Z,13.63
2018-10-17T03:34:52.169Z,13.62
2018-10-17T03:35:52.190Z,13.65
2018-10-17T03:37:44.942Z,13.62
2018-10-17T03:38:44.907Z,13.68
2018-10-17T03:40:37.718Z,13.63
2018-10-17T03:41:37.686Z,13.60
2018-10-17T03:43:30.481Z,13.60
2018-10-17T03:44:30.447Z,13.68
2018-10-17T03:46:23.267Z,13.63
2018-10-17T03:47:23.217Z,13.59
2018-10-17T03:49:16.164Z,13.62
2018-10-17T03:50:15.989Z,13.63
2018-10-17T03:52:08.809Z,13.59
2018-10-17T03:53:08.856Z,13.68
2018-10-17T03:55:02.129Z,13.62
2018-10-17T03:56:02.028Z,13.63
2018-10-17T03:57:54.829Z,13.68
2018-10-17T03:58:54.834Z,13.71
2018-10-17T04:00:47.603Z,13.65
2018-10-17T04:01:47.563Z,13.67
2018-10-17T04:03:40.369Z,13.62
2018-10-17T04:04:40.338Z,13.59
2018-10-17T04:06:33.168Z,13.62
2018-10-17T04:07:33.107Z,13.56
2018-10-17T04:09:25.919Z,13.56
2018-10-17T04:10:25.898Z,13.46
2018-10-17T04:12:19.207Z,13.42
2018-10-17T04:13:19.368Z,13.47
2018-10-17T04:15:12.473Z,13.49
2018-10-17T04:16:12.423Z,13.46
2018-10-17T04:18:05.242Z,13.54
2018-10-17T04:19:05.249Z,13.47
2018-10-17T04:20:58.009Z,13.57
2018-10-17T04:21:57.962Z,13.52
2018-10-17T04:23:50.760Z,13.52
2018-10-17T04:24:50.837Z,13.50
2018-10-17T04:26:43.560Z,13.53
2018-10-17T04:27:43.492Z,13.52
2018-10-17T04:29:36.304Z,13.52
2018-10-17T04:30:36.269Z,13.53
2018-10-17T04:32:29.107Z,13.54
2018-10-17T04:33:29.040Z,13.46
2018-10-17T04:35:21.856Z,13.42
2018-10-17T04:36:21.882Z,13.39
2018-10-17T04:38:14.629Z,13.41
2018-10-17T04:39:14.579Z,13.27
2018-10-17T04:41:07.406Z,13.18
2018-10-17T04:42:07.359Z,13.23
2018-10-17T04:44:00.185Z,13.05
2018-10-17T04:45:00.130Z,13.13
2018-10-17T04:46:52.999Z,13.16
2018-10-17T04:47:52.901Z,13.03
2018-10-17T04:49:45.707Z,13.03
2018-10-17T04:50:45.673Z,13.01
2018-10-17T04:52:38.495Z,13.03
2018-10-17T04:53:38.442Z,12.97
2018-10-17T04:55:31.252Z,13.01
2018-10-17T04:56:31.212Z,12.95
2018-10-17T04:58:24.044Z,12.93
2018-10-17T04:59:23.996Z,12.87
2018-10-17T05:01:16.928Z,12.90
2018-10-17T05:02:16.761Z,12.86
2018-10-17T05:04:09.575Z,12.90
2018-10-17T05:05:09.561Z,12.80
2018-10-17T05:07:02.330Z,12.83
2018-10-17T05:08:02.285Z,12.80
2018-10-17T05:09:55.096Z,12.86
2018-10-17T05:10:55.060Z,12.80
2018-10-17T05:12:47.881Z,12.86
2018-10-17T05:13:47.844Z,12.79
2018-10-17T05:15:40.633Z,12.80
2018-10-17T05:16:40.597Z,12.79
2018-10-17T05:18:33.421Z,12.78
2018-10-17T05:19:33.366Z,12.83
2018-10-17T05:21:26.168Z,12.86
2018-10-17T05:22:26.137Z,12.93
2018-10-17T05:24:18.961Z,12.93
2018-10-17T05:25:18.911Z,12.86
2018-10-17T05:27:13.197Z,12.76
2018-10-17T05:28:13.173Z,12.68
2018-10-17T05:30:05.986Z,12.67
2018-10-17T05:31:05.981Z,12.70
2018-10-17T05:32:58.742Z,12.68
2018-10-17T05:33:58.703Z,12.70
2018-10-17T05:35:51.533Z,12.60
2018-10-17T05:36:51.469Z,12.62
2018-10-17T05:38:44.291Z,12.64
2018-10-17T05:39:44.243Z,12.60
2018-10-17T05:41:37.042Z,12.64
2018-10-17T05:42:37.022Z,12.65
2018-10-17T05:44:29.858Z,12.65
2018-10-17T05:45:29.778Z,12.58
2018-10-17T05:47:22.599Z,12.62
2018-10-17T05:48:22.559Z,12.64
2018-10-17T05:50:15.371Z,12.64
2018-10-17T05:51:15.327Z,12.64
2018-10-17T05:53:08.193Z,12.64
2018-10-17T05:54:08.109Z,12.58
2018-10-17T05:56:00.921Z,12.72
2018-10-17T05:57:00.873Z,12.67
2018-10-17T05:58:53.748Z,12.76
2018-10-17T05:59:53.637Z,12.70
2018-10-17T06:01:46.641Z,12.76
2018-10-17T06:02:46.403Z,12.73
2018-10-17T06:04:39.224Z,12.78
2018-10-17T06:05:39.180Z,12.75
2018-10-17T06:07:31.984Z,12.79
2018-10-17T06:08:31.940Z,12.75
2018-10-17T06:10:24.868Z,12.78
2018-10-17T06:11:24.703Z,12.87
2018-10-17T06:13:17.606Z,12.82
2018-10-17T06:14:17.478Z,12.82
2018-10-17T06:16:10.316Z,12.76
2018-10-17T06:17:10.261Z,12.83
2018-10-17T06:19:03.076Z,12.82
2018-10-17T06:20:03.029Z,12.80
2018-10-17T06:21:55.861Z,12.90
2018-10-17T06:22:55.853Z,12.90
2018-10-17T06:24:48.619Z,12.83
2018-10-17T06:25:48.565Z,12.90
2018-10-17T06:27:41.385Z,12.91
2018-10-17T06:28:41.335Z,12.91
2018-10-17T06:30:34.150Z,12.91
2018-10-17T06:31:34.098Z,12.85
2018-10-17T06:33:26.920Z,12.98
2018-10-17T06:34:26.879Z,13.04
2018-10-17T06:36:19.686Z,13.00
2018-10-17T06:37:19.654Z,13.08
2018-10-17T06:39:12.486Z,13.01
2018-10-17T06:40:12.424Z,13.03
2018-10-17T06:42:05.234Z,13.00
2018-10-17T06:43:05.243Z,13.08
2018-10-17T06:44:58.020Z,13.11
2018-10-17T06:45:57.965Z,13.04
2018-10-17T06:47:50.781Z,13.13
2018-10-17T06:48:50.752Z,13.09
2018-10-17T06:50:43.540Z,13.12
2018-10-17T06:51:43.506Z,13.25
2018-10-17T06:53:36.324Z,13.22
2018-10-17T06:54:36.275Z,13.18
2018-10-17T06:56:29.080Z,13.20
2018-10-17T06:57:29.053Z,13.19
2018-10-17T06:59:21.876Z,13.22
2018-10-17T07:00:21.821Z,13.18
2018-10-17T07:02:14.703Z,13.15
2018-10-17T07:03:14.604Z,13.16
2018-10-17T07:05:07.432Z,13.22
2018-10-17T07:06:07.367Z,13.16
2018-10-17T07:08:00.226Z,13.27
2018-10-17T07:09:00.147Z,13.20
2018-10-17T07:10:52.988Z,13.31
2018-10-17T07:11:52.901Z,13.23
2018-10-17T07:13:45.727Z,13.18
2018-10-17T07:14:45.676Z,13.25
2018-10-17T07:16:38.497Z,13.27
2018-10-17T07:17:38.462Z,13.30
2018-10-17T07:19:31.267Z,13.19
2018-10-17T07:20:31.226Z,13.20
2018-10-17T07:22:24.032Z,13.20
2018-10-17T07:23:23.987Z,13.19
2018-10-17T07:25:16.930Z,13.30
2018-10-17T07:26:16.752Z,13.27
2018-10-17T07:28:09.576Z,13.18
2018-10-17T07:29:09.562Z,13.19
2018-10-17T07:31:02.437Z,13.25
2018-10-17T07:32:02.306Z,13.28
2018-10-17T07:33:55.136Z,13.31
2018-10-17T07:34:55.073Z,13.35
2018-10-17T07:36:47.923Z,13.33
2018-10-17T07:37:47.842Z,13.28
2018-10-17T07:39:40.665Z,13.38
2018-10-17T07:40:40.606Z,13.42
2018-10-17T07:42:33.428Z,13.46
2018-10-17T07:43:33.393Z,13.52
2018-10-17T07:45:26.286Z,13.42
2018-10-17T07:46:26.168Z,13.52
2018-10-17T07:48:18.978Z,13.53
2018-10-17T07:49:18.938Z,13.59
2018-10-17T07:51:11.759Z,13.57
2018-10-17T07:52:11.707Z,13.63
2018-10-17T07:54:04.528Z,13.62
2018-10-17T07:55:04.469Z,13.68
2018-10-17T07:56:57.293Z,13.67
2018-10-17T07:57:57.246Z,13.68
2018-10-17T07:59:50.147Z,13.68
2018-10-17T08:00:50.018Z,13.72
2018-10-17T08:02:42.831Z,13.60
2018-10-17T08:03:42.794Z,13.67
2018-10-17T08:05:35.614Z,13.77
2018-10-17T08:06:35.597Z,13.77
2018-10-17T08:08:28.373Z,13.86
2018-10-17T08:09:28.348Z,13.92
2018-10-17T08:11:21.173Z,13.92
2018-10-17T08:12:21.193Z,14.03
2018-10-17T08:14:14.022Z,14.10
2018-10-17T08:15:13.873Z,14.11
2018-10-17T08:17:06.705Z,14.22
2018-10-17T08:18:06.666Z,14.23
2018-10-17T08:19:59.460Z,14.23
2018-10-17T08:20:59.420Z,14.32
2018-10-17T08:22:52.235Z,14.37
2018-10-17T08:23:52.231Z,14.43
2018-10-17T08:25:44.996Z,14.53
2018-10-17T08:26:45.024Z,14.60
2018-10-17T08:28:37.785Z,14.68
2018-10-17T08:29:37.725Z,14.77
2018-10-17T08:31:30.566Z,14.81
2018-10-17T08:32:30.505Z,14.82
2018-10-17T08:34:23.318Z,14.97
2018-10-17T08:35:23.367Z,15.02
2018-10-17T08:37:16.583Z,15.03
2018-10-17T08:38:16.053Z,15.11
2018-10-17T08:40:08.854Z,15.07
2018-10-17T08:41:08.918Z,15.19
2018-10-17T08:43:01.649Z,15.29
2018-10-17T08:44:01.632Z,15.35
2018-10-17T08:45:54.411Z,15.44
2018-10-17T08:46:54.410Z,15.46
2018-10-17T08:48:47.195Z,15.59
2018-10-17T08:49:47.145Z,15.59
2018-10-17T08:51:39.949Z,15.70
2018-10-17T08:52:39.915Z,15.73
2018-10-17T08:54:32.749Z,15.84
2018-10-17T08:55:32.701Z,15.90
2018-10-17T08:57:25.512Z,16.05
2018-10-17T08:58:25.468Z,16.05
2018-10-17T09:00:18.301Z,16.16
2018-10-17T09:01:18.246Z,16.16
2018-10-17T09:03:11.077Z,16.12
2018-10-17T09:04:11.024Z,16.21
2018-10-17T09:06:03.933Z,16.21
2018-10-17T09:07:03.801Z,16.28
2018-10-17T09:08:56.616Z,16.35
2018-10-17T09:09:56.571Z,16.42
2018-10-17T09:11:49.404Z,16.51
2018-10-17T09:12:49.345Z,16.54
2018-10-17T09:14:42.182Z,16.68
2018-10-17T09:15:42.121Z,16.61
2018-10-17T09:17:34.932Z,16.96
2018-10-17T09:18:34.900Z,16.96
2018-10-17T09:20:27.830Z,17.11
2018-10-17T09:21:28.126Z,17.16
2018-10-17T09:23:20.477Z,17.27
2018-10-17T09:24:20.439Z,17.34
2018-10-17T09:26:13.274Z,17.39
2018-10-17T09:27:13.228Z,17.38
2018-10-17T09:29:06.145Z,17.57
2018-10-17T09:30:06.025Z,17.65
2018-10-17T09:31:58.841Z,18.03
2018-10-17T09:32:58.787Z,18.37
2018-10-17T09:34:51.613Z,19.33
2018-10-17T09:35:51.614Z,19.69
2018-10-17T09:37:44.418Z,20.47
2018-10-17T09:38:44.358Z,20.80
2018-10-17T09:40:37.193Z,21.52
2018-10-17T09:41:37.197Z,21.98
2018-10-17T09:43:30.004Z,22.57
2018-10-17T09:44:29.944Z,22.88
2018-10-17T09:46:23.290Z,23.68
2018-10-17T09:47:23.243Z,23.69
2018-10-17T09:49:16.064Z,24.18
2018-10-17T09:50:16.032Z,24.40
2018-10-17T09:52:09.389Z,24.61
2018-10-17T09:53:09.366Z,25.07
2018-10-17T09:55:02.160Z,25.69
2018-10-17T09:56:02.133Z,26.03
2018-10-17T09:57:54.990Z,26.70
2018-10-17T09:58:54.953Z,26.96
2018-10-17T10:00:48.259Z,27.15
2018-10-17T10:01:48.240Z,27.02
2018-10-17T10:03:41.573Z,27.45
2018-10-17T10:04:41.528Z,27.60
2018-10-17T10:06:34.853Z,27.58
2018-10-17T10:07:34.822Z,27.44
2018-10-17T10:09:27.660Z,28.00
2018-10-17T10:10:27.643Z,28.15
2018-10-17T10:12:20.973Z,27.83
2018-10-17T10:13:20.930Z,27.87
2018-10-17T10:15:14.276Z,28.60
2018-10-17T10:16:14.295Z,28.70
2018-10-17T10:18:07.596Z,29.02
2018-10-17T10:19:07.559Z,29.27
2018-10-17T10:21:00.883Z,29.51
2018-10-17T10:22:00.877Z,29.82
2018-10-17T10:23:54.255Z,30.00
2018-10-17T10:24:54.225Z,30.13
2018-10-17T10:26:47.488Z,30.63
2018-10-17T10:27:47.468Z,30.83
2018-10-17T10:29:40.864Z,31.05
2018-10-17T10:30:40.780Z,31.03
2018-10-17T10:32:34.121Z,31.28
2018-10-17T10:33:34.102Z,31.24
2018-10-17T10:35:27.446Z,31.66
2018-10-17T10:36:27.411Z,31.37
2018-10-17T10:38:20.779Z,31.65
2018-10-17T10:39:20.740Z,31.89
2018-10-17T10:41:14.074Z,32.37
2018-10-17T10:42:14.190Z,32.48
2018-10-17T10:44:07.476Z,32.52
2018-10-17T10:45:07.455Z,32.52
2018-10-17T10:47:00.724Z,32.52
2018-10-17T10:48:00.782Z,32.85
2018-10-17T10:49:54.102Z,32.96
2018-10-17T10:50:54.071Z,33.02
2018-10-17T10:52:47.407Z,33.04
2018-10-17T10:53:47.353Z,33.27
2018-10-17T10:55:40.692Z,33.39
2018-10-17T10:56:40.642Z,33.45
2018-10-17T10:58:34.083Z,33.64
2018-10-17T10:59:34.168Z,33.69
2018-10-17T11:01:27.331Z,33.83
2018-10-17T11:02:27.298Z,33.76
2018-10-17T11:04:20.624Z,33.22
2018-10-17T11:05:20.771Z,33.42
2018-10-17T11:07:14.024Z,33.77
2018-10-17T11:08:14.106Z,33.90
2018-10-17T11:10:07.335Z,33.96
2018-10-17T11:11:07.338Z,33.94
2018-10-17T11:13:00.627Z,33.87
2018-10-17T11:14:00.669Z,33.90
2018-10-17T11:15:53.960Z,33.99
2018-10-17T11:16:53.965Z,33.62
2018-10-17T11:18:47.250Z,33.46
2018-10-17T11:19:47.237Z,33.47
2018-10-17T11:21:40.618Z,33.79
2018-10-17T11:22:40.561Z,33.68
2018-10-17T11:24:33.898Z,33.73
2018-10-17T11:25:33.881Z,33.74
2018-10-17T11:27:27.242Z,33.86
2018-10-17T11:28:27.211Z,34.03
2018-10-17T11:30:20.552Z,34.23
2018-10-17T11:31:20.527Z,34.29
2018-10-17T11:33:14.012Z,34.08
2018-10-17T11:34:13.831Z,34.29
2018-10-17T11:36:07.177Z,34.42
2018-10-17T11:37:07.160Z,34.54
2018-10-17T11:39:00.525Z,34.24
2018-10-17T11:40:00.497Z,33.87
2018-10-17T11:41:53.811Z,33.90
2018-10-17T11:42:53.776Z,33.71
2018-10-17T11:44:47.114Z,33.04
2018-10-17T11:45:47.104Z,33.00
2018-10-17T11:47:40.494Z,32.90
2018-10-17T11:48:40.398Z,32.87
2018-10-17T11:50:33.791Z,32.58
2018-10-17T11:51:33.716Z,32.34
2018-10-17T11:53:27.058Z,32.00
2018-10-17T11:54:27.027Z,31.54
2018-10-17T11:56:20.350Z,30.78
2018-10-17T11:57:20.421Z,30.50
2018-10-17T11:59:13.761Z,30.25
2018-10-17T12:00:13.637Z,30.12
2018-10-17T12:02:06.962Z,29.87
2018-10-17T12:03:07.003Z,29.72
2018-10-17T12:04:59.978Z,29.20
2018-10-17T12:05:59.817Z,28.96
2018-10-17T12:07:52.599Z,28.74
2018-10-17T12:08:52.558Z,28.57
2018-10-17T12:10:45.384Z,28.19
2018-10-17T12:11:45.381Z,27.93
2018-10-17T12:13:38.707Z,27.71
2018-10-17T12:14:38.663Z,27.71
2018-10-17T12:16:31.489Z,27.29
2018-10-17T12:17:31.465Z,27.37
2018-10-17T12:19:24.798Z,27.17
2018-10-17T12:20:24.780Z,26.89
2018-10-17T12:22:17.583Z,26.63
2018-10-17T12:23:17.552Z,26.48
2018-10-17T12:25:10.389Z,26.21
2018-10-17T12:26:10.350Z,26.25
2018-10-17T12:28:03.324Z,26.28
2018-10-17T12:29:03.134Z,26.36
2018-10-17T12:30:55.991Z,26.23
2018-10-17T12:31:55.938Z,26.19
2018-10-17T12:33:49.259Z,26.03
2018-10-17T12:34:49.236Z,26.07
2018-10-17T12:36:42.568Z,25.99
2018-10-17T12:37:42.535Z,25.93
2018-10-17T12:39:35.400Z,26.02
2018-10-17T12:40:35.536Z,25.95
2018-10-17T12:42:28.674Z,25.93
2018-10-17T12:43:28.626Z,25.88
2018-10-17T12:45:22.038Z,25.68
2018-10-17T12:46:21.916Z,25.66
2018-10-17T12:48:14.730Z,25.47
2018-10-17T12:49:14.859Z,25.25
2018-10-17T12:51:07.548Z,25.25
2018-10-17T12:52:07.561Z,25.29
2018-10-17T12:54:00.844Z,25.32
2018-10-17T12:55:00.850Z,25.29
2018-10-17T12:56:53.621Z,25.50
2018-10-17T12:57:53.590Z,25.63
2018-10-17T12:59:46.399Z,25.68
2018-10-17T13:00:46.375Z,25.72
2018-10-17T13:02:39.206Z,25.83
2018-10-17T13:03:39.158Z,25.81
2018-10-17T13:05:31.996Z,25.68
2018-10-17T13:06:31.980Z,25.63
2018-10-17T13:08:24.807Z,25.69
2018-10-17T13:09:24.789Z,25.62
2018-10-17T13:11:17.777Z,25.72
2018-10-17T13:12:17.566Z,25.70
2018-10-17T13:14:10.389Z,25.54
2018-10-17T13:15:10.437Z,25.60
2018-10-17T13:17:03.696Z,25.70
2018-10-17T13:18:03.647Z,25.54
2018-10-17T13:19:56.464Z,25.66
2018-10-17T13:20:56.451Z,25.48
2018-10-17T13:22:49.266Z,25.33
2018-10-17T13:23:49.228Z,25.33
2018-10-17T13:25:42.545Z,25.32
2018-10-17T13:26:42.518Z,25.22
2018-10-17T13:28:35.338Z,25.04
2018-10-17T13:29:35.303Z,25.11
2018-10-17T13:31:28.625Z,25.06
2018-10-17T13:32:28.601Z,25.01
2018-10-17T13:34:21.926Z,24.92
2018-10-17T13:35:21.881Z,24.91
2018-10-17T13:37:15.326Z,24.84
2018-10-17T13:38:15.171Z,24.78
2018-10-17T13:40:08.520Z,24.77
2018-10-17T13:41:08.516Z,24.73
2018-10-17T13:43:01.312Z,24.85
2018-10-17T13:44:01.248Z,24.70
2018-10-17T13:45:54.600Z,24.66
2018-10-17T13:46:54.635Z,24.58
2018-10-17T13:48:47.404Z,24.68
2018-10-17T13:49:47.462Z,24.57
2018-10-17T13:51:40.204Z,24.54
2018-10-17T13:52:40.163Z,24.63
2018-10-17T13:54:33.062Z,24.51
2018-10-17T13:55:32.939Z,24.53
2018-10-17T13:57:25.773Z,24.50
2018-10-17T13:58:25.824Z,24.47
2018-10-17T14:00:19.072Z,24.50
2018-10-17T14:01:19.033Z,24.54
2018-10-17T14:03:12.336Z,24.68
2018-10-17T14:04:12.384Z,24.55
2018-10-17T14:06:05.691Z,24.70
2018-10-17T14:07:05.685Z,24.69
2018-10-17T14:08:58.963Z,24.65
2018-10-17T14:09:58.894Z,24.54
2018-10-17T14:11:51.736Z,24.53
2018-10-17T14:12:51.683Z,24.53
2018-10-17T14:14:45.007Z,24.65
2018-10-17T14:15:44.980Z,24.76
2018-10-17T14:17:37.788Z,24.96
2018-10-17T14:18:37.754Z,25.17
2018-10-17T14:20:31.122Z,25.22
2018-10-17T14:21:31.045Z,25.31
2018-10-17T14:23:24.403Z,25.53
2018-10-17T14:24:24.336Z,25.68
2018-10-17T14:26:17.183Z,25.69
2018-10-17T14:27:17.249Z,25.87
2018-10-17T14:29:10.458Z,25.90
2018-10-17T14:30:10.437Z,25.95
2018-10-17T14:32:03.259Z,25.93
2018-10-17T14:33:03.224Z,25.95
2018-10-17T14:34:56.528Z,25.83
2018-10-17T14:35:56.507Z,25.78
2018-10-17T14:37:49.473Z,25.69
2018-10-17T14:38:49.322Z,25.59
2018-10-17T14:40:42.187Z,25.33
2018-10-17T14:41:42.104Z,25.38
2018-10-17T14:43:34.928Z,25.33
2018-10-17T14:44:34.894Z,25.36
2018-10-17T14:46:28.222Z,25.04
2018-10-17T14:47:28.159Z,24.99
2018-10-17T14:49:20.998Z,24.91
2018-10-17T14:50:20.958Z,25.01
2018-10-17T14:52:13.796Z,25.04
2018-10-17T14:53:13.827Z,24.85
2018-10-17T14:55:07.069Z,24.85
2018-10-17T14:56:07.103Z,24.89
2018-10-17T14:58:00.377Z,24.58
2018-10-17T14:59:00.393Z,24.53
2018-10-17T15:00:53.652Z,24.58
2018-10-17T15:01:53.624Z,24.55
2018-10-17T15:03:46.952Z,24.48
2018-10-17T15:04:46.920Z,24.53
2018-10-17T15:06:40.237Z,24.40
2018-10-17T15:07:40.199Z,24.28
2018-10-17T15:09:33.551Z,24.23
2018-10-17T15:10:33.606Z,24.21
2018-10-17T15:12:26.838Z,24.17
2018-10-17T15:13:26.787Z,23.99
2018-10-17T15:15:20.208Z,24.01
2018-10-17T15:16:20.066Z,24.03
2018-10-17T15:18:13.472Z,23.92
2018-10-17T15:19:13.344Z,23.84
2018-10-17T15:21:06.247Z,23.80
2018-10-17T15:22:06.141Z,23.78
2018-10-17T15:23:59.034Z,23.74
2018-10-17T15:24:58.941Z,23.77
2018-10-17T15:26:52.270Z,23.55
2018-10-17T15:27:52.225Z,23.55
2018-10-17T15:29:45.556Z,23.63
2018-10-17T15:30:45.502Z,23.48
2018-10-17T15:32:38.807Z,23.46
2018-10-17T15:33:38.778Z,23.43
2018-10-17T15:35:32.124Z,23.39
2018-10-17T15:36:32.075Z,23.43
2018-10-17T15:38:25.394Z,23.40
2018-10-17T15:39:25.349Z,23.37
2018-10-17T15:41:18.182Z,23.21
2018-10-17T15:42:18.300Z,23.27
2018-10-17T15:44:10.966Z,23.21
2018-10-17T15:45:10.966Z,23.17
2018-10-17T15:47:04.247Z,23.05
2018-10-17T15:48:04.244Z,23.06
2018-10-17T15:49:57.542Z,23.06
2018-10-17T15:50:57.502Z,22.99
2018-10-17T15:52:50.341Z,22.99
2018-10-17T15:53:50.283Z,22.85
2018-10-17T15:55:43.616Z,22.72
2018-10-17T15:56:43.559Z,22.76
2018-10-17T15:58:36.392Z,22.76
2018-10-17T15:59:36.348Z,22.73
2018-10-17T16:01:29.198Z,22.63
2018-10-17T16:02:29.172Z,22.60
2018-10-17T16:04:21.962Z,22.43
2018-10-17T16:05:21.920Z,22.36
2018-10-17T16:07:14.743Z,22.50
2018-10-17T16:08:14.770Z,22.35
2018-10-17T16:10:07.539Z,22.33
2018-10-17T16:11:07.489Z,22.30
2018-10-17T16:13:00.308Z,22.15
2018-10-17T16:14:00.351Z,22.20
2018-10-17T16:15:53.601Z,22.17
2018-10-17T16:16:53.566Z,22.07
2018-10-17T16:18:46.369Z,21.96
2018-10-17T16:19:46.335Z,21.96
2018-10-17T16:21:39.170Z,21.92
2018-10-17T16:22:39.129Z,21.83
2018-10-17T16:24:32.449Z,21.77
2018-10-17T16:25:32.438Z,21.72
2018-10-17T16:27:25.766Z,21.60
2018-10-17T16:28:25.729Z,21.54
2018-10-17T16:30:18.598Z,21.48
2018-10-17T16:31:18.507Z,21.40
2018-10-17T16:33:11.325Z,21.43
2018-10-17T16:34:11.290Z,21.39
2018-10-17T16:36:04.292Z,21.33
2018-10-17T16:37:04.109Z,21.24
2018-10-17T16:38:56.901Z,21.18
2018-10-17T16:39:56.865Z,21.15
2018-10-17T16:41:49.684Z,21.15
2018-10-17T16:42:49.625Z,21.07
2018-10-17T16:44:42.950Z,20.99
2018-10-17T16:45:42.921Z,20.99
2018-10-17T16:47:35.765Z,21.00
2018-10-17T16:48:35.697Z,20.85
2018-10-17T16:50:28.559Z,20.92
2018-10-17T16:51:28.483Z,20.82
2018-10-17T16:53:21.316Z,20.80
2018-10-17T16:54:21.279Z,20.74
2018-10-17T16:56:14.116Z,20.65
2018-10-17T16:57:14.166Z,20.66
2018-10-17T16:59:06.907Z,20.58
2018-10-17T17:00:06.887Z,20.47
2018-10-17T17:02:00.278Z,20.36
2018-10-17T17:03:00.189Z,20.44
2018-10-17T17:04:52.933Z,20.26
2018-10-17T17:05:52.967Z,20.31
2018-10-17T17:07:45.738Z,20.16
2018-10-17T17:08:45.692Z,20.16
2018-10-17T17:10:38.546Z,20.09
2018-10-17T17:11:38.477Z,20.09
2018-10-17T17:13:31.313Z,20.07
2018-10-17T17:14:31.282Z,19.99
2018-10-17T17:16:24.123Z,19.96
2018-10-17T17:17:24.042Z,19.84
2018-10-17T17:19:16.878Z,19.82
2018-10-17T17:20:16.832Z,19.77
2018-10-17T17:22:09.752Z,19.74
2018-10-17T17:23:09.651Z,19.64
2018-10-17T17:25:02.471Z,19.62
2018-10-17T17:26:02.434Z,19.56
2018-10-17T17:27:55.769Z,19.55
2018-10-17T17:28:55.717Z,19.55
2018-10-17T17:30:48.533Z,19.47
2018-10-17T17:31:48.511Z,19.41
2018-10-17T17:33:41.321Z,19.41
2018-10-17T17:34:41.272Z,19.31
2018-10-17T17:36:34.199Z,19.26
2018-10-17T17:37:34.053Z,19.24
2018-10-17T17:39:27.389Z,19.31
2018-10-17T17:40:27.347Z,19.26
2018-10-17T17:42:20.147Z,19.21
2018-10-17T17:43:20.114Z,19.16
2018-10-17T17:45:12.955Z,19.15
2018-10-17T17:46:12.947Z,19.08
2018-10-17T17:48:05.748Z,19.04
2018-10-17T17:49:05.717Z,18.95
2018-10-17T17:50:59.033Z,18.92
2018-10-17T17:51:59.023Z,18.86
2018-10-17T17:53:51.825Z,18.83
2018-10-17T17:54:51.778Z,18.81
2018-10-17T17:56:44.599Z,18.74
2018-10-17T17:57:44.606Z,18.77
2018-10-17T17:59:37.402Z,18.63
2018-10-17T18:00:37.344Z,18.58
2018-10-17T18:02:30.165Z,18.59
2018-10-17T18:03:30.129Z,18.53
2018-10-17T18:05:23.458Z,18.58
2018-10-17T18:06:23.407Z,18.52
2018-10-17T18:08:16.241Z,18.47
2018-10-17T18:09:16.185Z,18.45
2018-10-17T18:11:09.045Z,18.52
2018-10-17T18:12:08.970Z,18.41
2018-10-17T18:14:01.788Z,18.38
2018-10-17T18:15:01.765Z,18.35
2018-10-17T18:16:54.629Z,18.35
2018-10-17T18:17:54.580Z,18.35
2018-10-17T18:19:47.404Z,18.33
2018-10-17T18:20:47.364Z,18.33
2018-10-17T18:22:40.664Z,18.33
2018-10-17T18:23:40.643Z,18.26
2018-10-17T18:25:33.471Z,18.34
2018-10-17T18:26:33.414Z,18.22
2018-10-17T18:28:26.284Z,18.26
2018-10-17T18:29:26.219Z,18.29
2018-10-17T18:31:19.040Z,18.25
2018-10-17T18:32:18.989Z,18.26
2018-10-17T18:34:11.805Z,18.15